Cosco Melbourne — V7IF5 — position and weather

sailwx.info

Track history (hours):
 
Tides and Currents Weather Stations Pressure Air Temp Water Temp Dewpoint Dewpoint Depression Visibility Wind Speed Wind Dir Waves Ship Positions

Cosco Melbourne

Last reported at 2017-Aug-28 16:34 UTC. Time now 2017-Sep-22 06:35 UTC.
Position N 31°59' E 123°41'.
Warning: this ship's position is 24 days out of date.

Type: Ship (hazmat cat A). MMSI: 538002366.

Date/timePositionNaut miles runAvg speedWind from/ knotsBaromVisibWave heightAir tempDewpointWater temp
2017-Aug-28 16:34N 31°59' E 123°41'214.6
2017-Aug-28 16:28N 31°58' E 123°40'2014.4
2017-Aug-28 15:06N 31°45' E 123°21'114.1
2017-Aug-28 15:00N 31°45' E 123°20'714.3
2017-Aug-28 14:30N 31°41' E 123°13'714.7
2017-Aug-28 14:00N 31°37' E 123°06'714.0
2017-Aug-28 13:30N 31°31' E 123°01'714.7
2017-Aug-28 13:00N 31°28' E 122°53'714.1
2017-Aug-28 12:30N 31°24' E 122°46'714.6
2017-Aug-28 11:59N 31°19' E 122°40'714.6
2017-Aug-28 11:30N 31°14' E 122°35'714.7
2017-Aug-28 11:00N 31°06' E 122°33'713.5
2017-Aug-28 10:30N 31°05' E 122°25'714.3
2017-Aug-28 10:00N 31°07' E 122°17'815.1
2017-Aug-28 09:30N 31°11' E 122°10'713.5
2017-Aug-28 09:00N 31°14' E 122°03'612.9
2017-Aug-28 08:30N 31°16' E 121°55'713.2
2017-Aug-28 08:00N 31°18' E 121°48'611.0
2017-Aug-28 07:30N 31°20' E 121°42'1 2.7
2017-Aug-28 07:00N 31°20' E 121°40'0 0.0
2017-Aug-28 06:26N 31°20' E 121°40'0 0.0
2017-Aug-28 05:59N 31°20' E 121°40'0 0.0
2017-Aug-28 05:23N 31°20' E 121°40'0 0.0
2017-Aug-28 04:59N 31°20' E 121°40'0 0.0
2017-Aug-28 04:19N 31°20' E 121°40'0 0.0
2017-Aug-28 03:58N 31°20' E 121°40'0 0.0
2017-Aug-28 03:28N 31°20' E 121°40'0 0.0
2017-Aug-28 02:43N 31°20' E 121°40'0 0.0
2017-Aug-28 02:28N 31°20' E 121°40'0 0.0
2017-Aug-28 01:54N 31°20' E 121°40'0 0.0
2017-Aug-28 01:30N 31°20' E 121°40'0 0.0
2017-Aug-28 01:00N 31°20' E 121°40'0 0.0
2017-Aug-28 00:30N 31°20' E 121°40'0 0.0
2017-Aug-27 23:57N 31°20' E 121°40'0 0.0
2017-Aug-27 23:29N 31°20' E 121°40'0 0.0
2017-Aug-27 22:56N 31°20' E 121°40'0 0.0
2017-Aug-27 22:28N 31°20' E 121°40'0 0.0
2017-Aug-27 21:55N 31°20' E 121°40'0 0.0
2017-Aug-27 21:28N 31°20' E 121°40'0 0.0
2017-Aug-27 21:00N 31°20' E 121°40'0 0.0
2017-Aug-27 20:30N 31°20' E 121°40'0 0.0
2017-Aug-27 19:51N 31°20' E 121°40'0 0.0
2017-Aug-27 19:30N 31°20' E 121°40'0 0.0
2017-Aug-27 18:59N 31°20' E 121°40'0 0.0
2017-Aug-27 18:29N 31°20' E 121°40'0 0.0
2017-Aug-27 17:56N 31°20' E 121°40'0 0.0
2017-Aug-27 17:26N 31°20' E 121°40'0 0.0
2017-Aug-27 16:59N 31°20' E 121°40'0 0.0
2017-Aug-27 16:28N 31°20' E 121°40'0 0.0
2017-Aug-27 15:58N 31°20' E 121°40'0 0.0
2017-Aug-27 15:28N 31°20' E 121°40'0 0.0
2017-Aug-27 14:43N 31°20' E 121°40'0 0.2
2017-Aug-27 14:30N 31°20' E 121°40'1 2.7
2017-Aug-27 14:00N 31°20' E 121°42'5 9.3
2017-Aug-27 13:30N 31°18' E 121°47'611.3
2017-Aug-27 13:00N 31°16' E 121°53'612.1
2017-Aug-27 12:30N 31°15' E 122°00'611.3
2017-Aug-27 12:00N 31°13' E 122°06'611.8
2017-Aug-27 11:30N 31°10' E 122°12'612.4
2017-Aug-27 11:00N 31°06' E 122°18'612.9
2017-Aug-27 10:31N 31°06' E 122°25'4 8.1
2017-Aug-27 09:58N 31°07' E 122°30'4 8.5
2017-Aug-27 09:29N 31°07' E 122°35'45410.7
2017-Aug-25 15:15N 24°14' E 119°04'1413.6
2017-Aug-25 14:13N 24°04' E 118°53'3213.1
2017-Aug-25 11:45N 23°42' E 118°27'414.0
2017-Aug-25 11:29N 23°40' E 118°24'  
Track history (hours):
 
Tides and Currents Weather Stations Pressure Air Temp Water Temp Dewpoint Dewpoint Depression Visibility Wind Speed Wind Dir Waves Ship Positions

Cosco Melbourne

Last reported at 2017-Aug-28 16:34 UTC. Time now 2017-Sep-22 06:35 UTC.
Position N 31°59' E 123°41'.
Warning: this ship's position is 24 days out of date.

Type: Ship (hazmat cat A). MMSI: 538002366.

Date/timePositionNaut miles runAvg speedWind from/ knotsBaromVisibWave heightAir tempDewpointWater temp
2017-Aug-28 16:34N 31°59' E 123°41'214.6
2017-Aug-28 16:28N 31°58' E 123°40'2014.4
2017-Aug-28 15:06N 31°45' E 123°21'114.1
2017-Aug-28 15:00N 31°45' E 123°20'714.3
2017-Aug-28 14:30N 31°41' E 123°13'714.7
2017-Aug-28 14:00N 31°37' E 123°06'714.0
2017-Aug-28 13:30N 31°31' E 123°01'714.7
2017-Aug-28 13:00N 31°28' E 122°53'714.1
2017-Aug-28 12:30N 31°24' E 122°46'714.6
2017-Aug-28 11:59N 31°19' E 122°40'714.6
2017-Aug-28 11:30N 31°14' E 122°35'714.7
2017-Aug-28 11:00N 31°06' E 122°33'713.5
2017-Aug-28 10:30N 31°05' E 122°25'714.3
2017-Aug-28 10:00N 31°07' E 122°17'815.1
2017-Aug-28 09:30N 31°11' E 122°10'713.5
2017-Aug-28 09:00N 31°14' E 122°03'612.9
2017-Aug-28 08:30N 31°16' E 121°55'713.2
2017-Aug-28 08:00N 31°18' E 121°48'611.0
2017-Aug-28 07:30N 31°20' E 121°42'1 2.7
2017-Aug-28 07:00N 31°20' E 121°40'0 0.0
2017-Aug-28 06:26N 31°20' E 121°40'0 0.0
2017-Aug-28 05:59N 31°20' E 121°40'0 0.0
2017-Aug-28 05:23N 31°20' E 121°40'0 0.0
2017-Aug-28 04:59N 31°20' E 121°40'0 0.0
2017-Aug-28 04:19N 31°20' E 121°40'0 0.0
2017-Aug-28 03:58N 31°20' E 121°40'0 0.0
2017-Aug-28 03:28N 31°20' E 121°40'0 0.0
2017-Aug-28 02:43N 31°20' E 121°40'0 0.0
2017-Aug-28 02:28N 31°20' E 121°40'0 0.0
2017-Aug-28 01:54N 31°20' E 121°40'0 0.0
2017-Aug-28 01:30N 31°20' E 121°40'0 0.0
2017-Aug-28 01:00N 31°20' E 121°40'0 0.0
2017-Aug-28 00:30N 31°20' E 121°40'0 0.0
2017-Aug-27 23:57N 31°20' E 121°40'0 0.0
2017-Aug-27 23:29N 31°20' E 121°40'0 0.0
2017-Aug-27 22:56N 31°20' E 121°40'0 0.0
2017-Aug-27 22:28N 31°20' E 121°40'0 0.0
2017-Aug-27 21:55N 31°20' E 121°40'0 0.0
2017-Aug-27 21:28N 31°20' E 121°40'0 0.0
2017-Aug-27 21:00N 31°20' E 121°40'0 0.0
2017-Aug-27 20:30N 31°20' E 121°40'0 0.0
2017-Aug-27 19:51N 31°20' E 121°40'0 0.0
2017-Aug-27 19:30N 31°20' E 121°40'0 0.0
2017-Aug-27 18:59N 31°20' E 121°40'0 0.0
2017-Aug-27 18:29N 31°20' E 121°40'0 0.0
2017-Aug-27 17:56N 31°20' E 121°40'0 0.0
2017-Aug-27 17:26N 31°20' E 121°40'0 0.0
2017-Aug-27 16:59N 31°20' E 121°40'0 0.0
2017-Aug-27 16:28N 31°20' E 121°40'0 0.0
2017-Aug-27 15:58N 31°20' E 121°40'0 0.0
2017-Aug-27 15:28N 31°20' E 121°40'0 0.0
2017-Aug-27 14:43N 31°20' E 121°40'0 0.2
2017-Aug-27 14:30N 31°20' E 121°40'1 2.7
2017-Aug-27 14:00N 31°20' E 121°42'5 9.3
2017-Aug-27 13:30N 31°18' E 121°47'611.3
2017-Aug-27 13:00N 31°16' E 121°53'612.1
2017-Aug-27 12:30N 31°15' E 122°00'611.3
2017-Aug-27 12:00N 31°13' E 122°06'611.8
2017-Aug-27 11:30N 31°10' E 122°12'612.4
2017-Aug-27 11:00N 31°06' E 122°18'612.9
2017-Aug-27 10:31N 31°06' E 122°25'4 8.1
2017-Aug-27 09:58N 31°07' E 122°30'4 8.5
2017-Aug-27 09:29N 31°07' E 122°35'45410.7
2017-Aug-25 15:15N 24°14' E 119°04'1413.6
2017-Aug-25 14:13N 24°04' E 118°53'3213.1
2017-Aug-25 11:45N 23°42' E 118°27'414.0
2017-Aug-25 11:29N 23°40' E 118°24'  

Dump ship's entire track history